sensor_id;sensor_type;location;lat;lon;timestamp;pressure;altitude;pressure_sealevel;temperature;humidity
30614;BME280;17381;51.690;5.270;2023-04-25T00:14:33;101104.03;;;6.06;78.47
30614;BME280;17381;51.690;5.270;2023-04-25T00:17:38;101110.16;;;6.02;78.70
30614;BME280;17381;51.690;5.270;2023-04-25T00:20:39;101104.91;;;5.99;78.46
30614;BME280;17381;51.690;5.270;2023-04-25T00:23:55;101110.16;;;5.97;78.51
30614;BME280;17381;51.690;5.270;2023-04-25T00:26:44;101111.91;;;5.97;78.74
30614;BME280;17381;51.690;5.270;2023-04-25T00:29:51;101106.69;;;5.95;78.76
30614;BME280;17381;51.690;5.270;2023-04-25T00:32:55;101104.91;;;5.93;78.74
30614;BME280;17381;51.690;5.270;2023-04-25T00:35:46;101107.50;;;5.91;78.81
30614;BME280;17381;51.690;5.270;2023-04-25T00:38:42;101113.59;;;5.88;79.07
30614;BME280;17381;51.690;5.270;2023-04-25T01:23:31;101124.09;;;5.72;80.07
30614;BME280;17381;51.690;5.270;2023-04-25T01:30:00;101136.25;;;5.79;80.35
30614;BME280;17381;51.690;5.270;2023-04-25T01:32:57;101130.16;;;5.81;80.45
30614;BME280;17381;51.690;5.270;2023-04-25T01:35:57;101131.88;;;5.82;80.61
30614;BME280;17381;51.690;5.270;2023-04-25T01:38:44;101131.91;;;5.81;80.30
30614;BME280;17381;51.690;5.270;2023-04-25T01:41:38;101115.41;;;5.68;80.27
30614;BME280;17381;51.690;5.270;2023-04-25T01:44:30;101135.38;;;5.77;80.28
30614;BME280;17381;51.690;5.270;2023-04-25T01:47:26;101136.25;;;5.73;80.11
30614;BME280;17381;51.690;5.270;2023-04-25T01:50:24;101133.66;;;5.68;80.20
30614;BME280;17381;51.690;5.270;2023-04-25T01:53:18;101075.47;;;5.31;80.05
30614;BME280;17381;51.690;5.270;2023-04-25T01:56:27;101143.22;;;5.61;80.04
30614;BME280;17381;51.690;5.270;2023-04-25T01:59:17;101139.75;;;5.58;80.36
30614;BME280;17381;51.690;5.270;2023-04-25T02:02:45;101139.75;;;5.53;80.25
30614;BME280;17381;51.690;5.270;2023-04-25T02:05:42;101142.34;;;5.49;80.39
30614;BME280;17381;51.690;5.270;2023-04-25T02:08:32;101145.81;;;5.46;80.00
30614;BME280;17381;51.690;5.270;2023-04-25T02:11:17;101142.34;;;5.39;79.99
30614;BME280;17381;51.690;5.270;2023-04-25T02:14:07;101133.66;;;5.31;80.28
30614;BME280;17381;51.690;5.270;2023-04-25T02:17:33;101154.50;;;5.31;79.93
30614;BME280;17381;51.690;5.270;2023-04-25T02:20:24;101100.63;;;4.95;79.78
30614;BME280;17381;51.690;5.270;2023-04-25T02:22:56;101072.81;;;4.71;80.08
30614;BME280;17381;51.690;5.270;2023-04-25T02:25:36;101164.94;;;5.22;79.89
30614;BME280;17381;51.690;5.270;2023-04-25T02:28:32;101104.09;;;4.83;80.15
30614;BME280;17381;51.690;5.270;2023-04-25T02:46:29;101154.41;;;4.85;80.56
30614;BME280;17381;51.690;5.270;2023-04-25T02:49:14;101153.56;;;4.88;81.15
30614;BME280;17381;51.690;5.270;2023-04-25T02:52:05;101160.53;;;4.93;81.08
30614;BME280;17381;51.690;5.270;2023-04-25T02:54:51;101168.34;;;5.02;81.68
30614;BME280;17381;51.690;5.270;2023-04-25T02:57:46;101161.41;;;5.08;81.75
30614;BME280;17381;51.690;5.270;2023-04-25T03:16:37;101166.69;;;5.32;82.61
30614;BME280;17381;51.690;5.270;2023-04-25T03:26:49;101156.25;;;5.35;82.46
30614;BME280;17381;51.690;5.270;2023-04-25T03:29:50;101158.84;;;5.41;82.47
30614;BME280;17381;51.690;5.270;2023-04-25T03:32:45;101165.81;;;5.41;82.48
30614;BME280;17381;51.690;5.270;2023-04-25T03:35:43;101160.56;;;5.39;82.47
30614;BME280;17381;51.690;5.270;2023-04-25T03:38:30;101149.28;;;5.25;82.54
30614;BME280;17381;51.690;5.270;2023-04-25T03:41:41;101160.59;;;5.36;82.34
30614;BME280;17381;51.690;5.270;2023-04-25T04:31:56;101205.75;;;5.29;83.14
30614;BME280;17381;51.690;5.270;2023-04-25T04:34:29;101185.78;;;5.22;83.45
30614;BME280;17381;51.690;5.270;2023-04-25T04:37:03;101210.09;;;5.39;83.01
30614;BME280;17381;51.690;5.270;2023-04-25T04:39:36;101223.16;;;5.49;83.32
30614;BME280;17381;51.690;5.270;2023-04-25T04:42:30;101217.09;;;5.53;83.46
30614;BME280;17381;51.690;5.270;2023-04-25T04:45:19;101202.28;;;5.47;83.48
30614;BME280;17381;51.690;5.270;2023-04-25T04:48:42;101217.09;;;5.53;83.26
30614;BME280;17381;51.690;5.270;2023-04-25T04:51:35;101222.31;;;5.59;83.17
30614;BME280;17381;51.690;5.270;2023-04-25T04:54:28;101183.16;;;5.42;83.40
30614;BME280;17381;51.690;5.270;2023-04-25T04:57:24;101216.25;;;5.71;83.36
30614;BME280;17381;51.690;5.270;2023-04-25T05:00:30;101217.09;;;5.66;83.15
30614;BME280;17381;51.690;5.270;2023-04-25T05:11:18;101250.13;;;5.87;82.94
30614;BME280;17381;51.690;5.270;2023-04-25T05:14:13;101248.41;;;5.89;83.08
30614;BME280;17381;51.690;5.270;2023-04-25T05:16:54;101257.09;;;5.96;83.14
30614;BME280;17381;51.690;5.270;2023-04-25T05:20:12;101257.13;;;6.01;82.84
30614;BME280;17381;51.690;5.270;2023-04-25T05:23:21;101268.44;;;6.04;82.73
30614;BME280;17381;51.690;5.270;2023-04-25T05:26:32;101268.41;;;6.09;82.96
30614;BME280;17381;51.690;5.270;2023-04-25T05:29:47;101262.31;;;6.13;83.03
30614;BME280;17381;51.690;5.270;2023-04-25T05:32:32;101279.72;;;6.25;83.11
30614;BME280;17381;51.690;5.270;2023-04-25T05:35:05;101255.38;;;6.14;82.51
30614;BME280;17381;51.690;5.270;2023-04-25T05:37:53;101281.47;;;6.30;81.45
30614;BME280;17381;51.690;5.270;2023-04-25T05:40:53;101274.47;;;6.29;81.36
30614;BME280;17381;51.690;5.270;2023-04-25T05:44:06;101275.34;;;6.36;81.03
30614;BME280;17381;51.690;5.270;2023-04-25T05:47:35;101283.19;;;6.34;80.44
30614;BME280;17381;51.690;5.270;2023-04-25T06:32:12;101317.16;;;6.22;76.98
30614;BME280;17381;51.690;5.270;2023-04-25T06:35:20;101320.63;;;6.30;75.94
30614;BME280;17381;51.690;5.270;2023-04-25T06:41:34;101322.34;;;6.47;75.60
30614;BME280;17381;51.690;5.270;2023-04-25T06:44:14;101329.28;;;6.59;75.80
30614;BME280;17381;51.690;5.270;2023-04-25T06:47:03;101322.31;;;6.67;74.55
30614;BME280;17381;51.690;5.270;2023-04-25T07:31:00;101387.25;;;7.76;71.10
30614;BME280;17381;51.690;5.270;2023-04-25T07:34:32;101389.78;;;7.93;69.92
30614;BME280;17381;51.690;5.270;2023-04-25T07:37:39;101392.31;;;8.05;70.42
30614;BME280;17381;51.690;5.270;2023-04-25T07:44:27;101392.16;;;8.28;69.30
30614;BME280;17381;51.690;5.270;2023-04-25T07:47:20;101393.81;;;8.38;69.47
30614;BME280;17381;51.690;5.270;2023-04-25T07:53:50;101395.47;;;8.51;69.20
30614;BME280;17381;51.690;5.270;2023-04-25T09:02:00;101475.41;;;10.50;60.38
30614;BME280;17381;51.690;5.270;2023-04-25T09:05:10;101432.56;;;10.45;59.18
30614;BME280;17381;51.690;5.270;2023-04-25T09:08:28;101493.31;;;10.81;58.59
30614;BME280;17381;51.690;5.270;2023-04-25T09:11:56;101492.13;;;11.00;59.35
30614;BME280;17381;51.690;5.270;2023-04-25T11:17:30;101547.50;;;14.10;47.56
30614;BME280;17381;51.690;5.270;2023-04-25T11:20:56;101549.06;;;14.45;47.31
30614;BME280;17381;51.690;5.270;2023-04-25T11:38:11;101555.00;;;15.36;44.66
30614;BME280;17381;51.690;5.270;2023-04-25T11:41:31;101572.22;;;15.75;42.85
30614;BME280;17381;51.690;5.270;2023-04-25T11:44:56;101564.72;;;16.11;39.41
30614;BME280;17381;51.690;5.270;2023-04-25T11:48:10;101554.66;;;16.43;39.18
30614;BME280;17381;51.690;5.270;2023-04-25T11:51:05;101573.09;;;16.24;40.63
30614;BME280;17381;51.690;5.270;2023-04-25T11:54:35;101570.91;;;15.86;36.94
30614;BME280;17381;51.690;5.270;2023-04-25T11:57:51;101554.78;;;15.42;38.70
30614;BME280;17381;51.690;5.270;2023-04-25T12:00:57;101591.97;;;15.39;36.20
30614;BME280;17381;51.690;5.270;2023-04-25T12:04:29;101579.47;;;15.43;37.76
30614;BME280;17381;51.690;5.270;2023-04-25T12:07:42;101578.28;;;15.78;39.50
30614;BME280;17381;51.690;5.270;2023-04-25T12:10:51;101574.66;;;16.29;40.96
30614;BME280;17381;51.690;5.270;2023-04-25T12:14:08;101585.81;;;17.07;38.81
30614;BME280;17381;51.690;5.270;2023-04-25T12:17:01;101582.03;;;17.12;39.80
30614;BME280;17381;51.690;5.270;2023-04-25T12:23:52;101610.28;;;15.45;42.55
30614;BME280;17381;51.690;5.270;2023-04-25T12:28:08;101609.88;;;14.76;43.34
30614;BME280;17381;51.690;5.270;2023-04-25T12:34:15;101630.47;;;13.37;46.33
30614;BME280;17381;51.690;5.270;2023-04-25T12:37:09;101637.66;;;12.92;47.13
30614;BME280;17381;51.690;5.270;2023-04-25T12:44:09;101645.31;;;12.20;49.78
30614;BME280;17381;51.690;5.270;2023-04-25T12:47:16;101646.28;;;12.16;50.18
30614;BME280;17381;51.690;5.270;2023-04-25T12:59:52;101626.25;;;12.51;50.14
30614;BME280;17381;51.690;5.270;2023-04-25T13:06:07;101609.09;;;14.43;48.92
30614;BME280;17381;51.690;5.270;2023-04-25T13:09:35;101609.44;;;15.72;47.22
30614;BME280;17381;51.690;5.270;2023-04-25T13:12:37;101609.84;;;16.34;45.21
30614;BME280;17381;51.690;5.270;2023-04-25T13:19:12;101632.78;;;15.60;43.68
30614;BME280;17381;51.690;5.270;2023-04-25T13:22:26;101626.44;;;14.83;41.77
30614;BME280;17381;51.690;5.270;2023-04-25T13:38:08;101626.56;;;13.15;46.15
30614;BME280;17381;51.690;5.270;2023-04-25T13:40:48;101631.84;;;13.15;45.64
30614;BME280;17381;51.690;5.270;2023-04-25T13:43:43;101626.47;;;13.55;46.05
30614;BME280;17381;51.690;5.270;2023-04-25T13:46:38;101623.63;;;14.28;47.60
30614;BME280;17381;51.690;5.270;2023-04-25T13:49:52;101622.97;;;15.36;47.26
30614;BME280;17381;51.690;5.270;2023-04-25T13:53:06;101619.88;;;16.26;43.97
30614;BME280;17381;51.690;5.270;2023-04-25T13:56:03;101621.69;;;16.01;43.75
30614;BME280;17381;51.690;5.270;2023-04-25T14:02:39;101632.72;;;15.35;42.98
30614;BME280;17381;51.690;5.270;2023-04-25T14:05:40;101623.47;;;15.75;45.45
30614;BME280;17381;51.690;5.270;2023-04-25T14:08:41;101626.50;;;15.63;43.96
30614;BME280;17381;51.690;5.270;2023-04-25T14:11:37;101628.22;;;15.11;42.46
30614;BME280;17381;51.690;5.270;2023-04-25T14:14:50;101630.47;;;14.67;43.86
30614;BME280;17381;51.690;5.270;2023-04-25T14:18:19;101629.34;;;14.74;43.53
30614;BME280;17381;51.690;5.270;2023-04-25T14:21:21;101561.81;;;15.17;39.45
30614;BME280;17381;51.690;5.270;2023-04-25T14:24:25;101622.84;;;16.17;39.42
30614;BME280;17381;51.690;5.270;2023-04-25T14:27:32;101595.81;;;16.76;41.36
30614;BME280;17381;51.690;5.270;2023-04-25T14:30:41;101621.66;;;17.39;36.80
30614;BME280;17381;51.690;5.270;2023-04-25T14:33:33;101634.88;;;17.18;38.19
30614;BME280;17381;51.690;5.270;2023-04-25T14:47:50;101635.03;;;18.59;34.55
30614;BME280;17381;51.690;5.270;2023-04-25T16:03:38;101682.06;;;17.78;35.41
30614;BME280;17381;51.690;5.270;2023-04-25T16:06:52;101684.91;;;17.73;36.10
30614;BME280;17381;51.690;5.270;2023-04-25T17:06:26;101722.16;;;11.98;45.83
30614;BME280;17381;51.690;5.270;2023-04-25T17:13:47;101737.81;;;11.52;46.49
30614;BME280;17381;51.690;5.270;2023-04-25T19:25:48;101856.59;;;8.73;54.56
30614;BME280;17381;51.690;5.270;2023-04-25T19:36:21;101854.00;;;8.62;55.03
30614;BME280;17381;51.690;5.270;2023-04-25T20:13:06;101878.41;;;8.03;58.33
30614;BME280;17381;51.690;5.270;2023-04-25T20:53:51;101889.56;;;7.48;59.75
30614;BME280;17381;51.690;5.270;2023-04-25T20:57:01;101880.81;;;7.40;60.36
30614;BME280;17381;51.690;5.270;2023-04-25T21:49:58;101911.69;;;6.60;63.59
30614;BME280;17381;51.690;5.270;2023-04-25T21:53:09;101913.41;;;6.55;63.84
30614;BME280;17381;51.690;5.270;2023-04-25T21:56:15;101912.50;;;6.48;64.15
30614;BME280;17381;51.690;5.270;2023-04-25T22:31:08;101928.41;;;5.90;65.98
30614;BME280;17381;51.690;5.270;2023-04-25T22:45:40;101934.25;;;5.69;66.52
30614;BME280;17381;51.690;5.270;2023-04-25T22:55:29;101946.28;;;5.57;66.89
30614;BME280;17381;51.690;5.270;2023-04-25T23:06:18;101955.59;;;5.38;67.68
30614;BME280;17381;51.690;5.270;2023-04-25T23:08:51;101931.09;;;5.25;67.36
30614;BME280;17381;51.690;5.270;2023-04-25T23:11:30;101957.22;;;5.31;67.95
30614;BME280;17381;51.690;5.270;2023-04-25T23:14:09;101953.72;;;5.29;67.84
30614;BME280;17381;51.690;5.270;2023-04-25T23:16:51;101963.31;;;5.30;68.03
30614;BME280;17381;51.690;5.270;2023-04-25T23:19:39;101934.50;;;5.21;68.01
30614;BME280;17381;51.690;5.270;2023-04-25T23:22:14;101954.56;;;5.27;68.05
30614;BME280;17381;51.690;5.270;2023-04-25T23:24:49;101883.69;;;4.88;68.29
30614;BME280;17381;51.690;5.270;2023-04-25T23:27:26;101946.72;;;5.25;68.13
30614;BME280;17381;51.690;5.270;2023-04-25T23:29:57;101952.78;;;5.22;68.62
30614;BME280;17381;51.690;5.270;2023-04-25T23:32:40;101951.91;;;5.22;68.43
30614;BME280;17381;51.690;5.270;2023-04-25T23:35:27;101947.44;;;5.15;68.47
30614;BME280;17381;51.690;5.270;2023-04-25T23:38:05;101938.72;;;5.11;68.73
30614;BME280;17381;51.690;5.270;2023-04-25T23:40:38;101935.94;;;5.00;68.97
30614;BME280;17381;51.690;5.270;2023-04-25T23:43:15;101936.84;;;5.01;68.93
30614;BME280;17381;51.690;5.270;2023-04-25T23:45:55;101951.66;;;5.03;69.19
30614;BME280;17381;51.690;5.270;2023-04-25T23:48:43;101942.06;;;5.01;69.42
30614;BME280;17381;51.690;5.270;2023-04-25T23:51:26;101943.72;;;4.97;69.25
30614;BME280;17381;51.690;5.270;2023-04-25T23:53:56;101942.75;;;4.92;69.42
30614;BME280;17381;51.690;5.270;2023-04-25T23:56:28;101941.00;;;4.90;69.39
30614;BME280;17381;51.690;5.270;2023-04-25T23:59:02;101934.75;;;4.78;69.82
